createdAt,value
2022-10-14T00:01:18.975Z,94.88
2022-10-14T00:03:49.436Z,101.45
2022-10-14T00:06:22.860Z,100.20
2022-10-14T00:08:51.025Z,106.80
2022-10-14T00:11:21.430Z,111.40
2022-10-14T00:13:50.318Z,99.55
2022-10-14T00:16:20.801Z,91.78
2022-10-14T00:18:51.186Z,162.00
2022-10-14T00:21:19.586Z,115.47
2022-10-14T00:23:48.218Z,109.35
2022-10-14T00:26:22.161Z,100.70
2022-10-14T00:28:51.329Z,118.07
2022-10-14T00:31:19.694Z,112.63
2022-10-14T00:33:50.418Z,123.80
2022-10-14T00:36:21.181Z,137.52
2022-10-14T00:38:50.072Z,134.73
2022-10-14T00:41:20.899Z,119.15
2022-10-14T00:43:55.726Z,114.15
2022-10-14T00:46:24.190Z,112.82
2022-10-14T00:48:59.754Z,155.68
2022-10-14T00:51:28.470Z,154.63
2022-10-14T00:53:56.562Z,172.18
2022-10-14T00:56:30.018Z,130.90
2022-10-14T00:58:58.833Z,142.55
2022-10-14T01:01:26.877Z,165.70
2022-10-14T01:03:55.245Z,125.35
2022-10-14T01:06:42.323Z,129.30
2022-10-14T01:09:21.288Z,136.65
2022-10-14T01:12:27.567Z,192.88
2022-10-14T01:14:59.991Z,210.95
2022-10-14T01:17:37.360Z,120.40
2022-10-14T01:20:31.910Z,173.25
2022-10-14T01:23:18.800Z,156.30
2022-10-14T01:25:58.411Z,174.23
2022-10-14T01:28:35.858Z,134.75
2022-10-14T01:31:10.481Z,171.00
2022-10-14T01:33:41.201Z,138.77
2022-10-14T01:36:13.769Z,172.18
2022-10-14T01:38:46.066Z,173.65
2022-10-14T01:41:20.914Z,148.95
2022-10-14T01:43:51.591Z,196.10
2022-10-14T01:46:24.250Z,207.18
2022-10-14T01:48:55.768Z,171.32
2022-10-14T01:51:28.051Z,157.80
2022-10-14T01:53:59.970Z,275.55
2022-10-14T01:56:30.529Z,379.77
2022-10-14T01:59:01.713Z,340.95
2022-10-14T02:01:35.010Z,289.85
2022-10-14T02:04:03.170Z,297.08
2022-10-14T02:06:34.877Z,303.52
2022-10-14T02:09:12.962Z,302.00
2022-10-14T02:11:59.096Z,371.98
2022-10-14T02:14:40.254Z,343.88
2022-10-14T02:17:13.638Z,430.20
2022-10-14T02:19:49.922Z,467.83
2022-10-14T02:22:25.387Z,394.88
2022-10-14T02:24:58.829Z,361.55
2022-10-14T02:27:29.426Z,418.75
2022-10-14T02:30:00.724Z,471.13
2022-10-14T02:32:30.934Z,426.05
2022-10-14T02:35:01.076Z,317.58
2022-10-14T02:37:30.821Z,267.02
2022-10-14T02:40:07.503Z,143.32
2022-10-14T02:42:35.893Z,152.50
2022-10-14T02:45:07.501Z,368.30
2022-10-14T02:47:36.958Z,125.78
2022-10-14T02:50:05.482Z,124.07
2022-10-14T02:52:33.487Z,529.50
2022-10-14T02:55:01.595Z,474.17
2022-10-14T02:57:29.595Z,497.08
2022-10-14T02:59:58.274Z,595.58
2022-10-14T03:02:26.551Z,625.63
2022-10-14T03:04:56.285Z,688.08
2022-10-14T03:07:24.534Z,502.02
2022-10-14T03:09:53.946Z,580.75
2022-10-14T03:12:25.034Z,724.30
2022-10-14T03:14:55.916Z,644.38
2022-10-14T03:17:26.079Z,704.05
2022-10-14T03:19:59.322Z,624.17
2022-10-14T03:22:27.820Z,693.40
2022-10-14T03:24:56.786Z,635.17
2022-10-14T03:27:40.018Z,503.63
2022-10-14T03:30:12.953Z,679.30
2022-10-14T03:32:52.917Z,607.67
2022-10-14T03:35:43.004Z,689.25
2022-10-14T03:38:14.333Z,628.60
2022-10-14T03:40:42.982Z,659.78
2022-10-14T03:43:13.428Z,641.92
2022-10-14T03:45:49.945Z,419.90
2022-10-14T03:48:20.571Z,655.88
2022-10-14T03:50:50.226Z,664.75
2022-10-14T03:53:20.629Z,563.55
2022-10-14T03:55:50.402Z,669.90
2022-10-14T03:58:18.486Z,580.85
2022-10-14T04:00:51.648Z,690.80
2022-10-14T04:03:42.818Z,705.47
2022-10-14T04:06:12.277Z,644.33
2022-10-14T04:08:40.342Z,705.08
2022-10-14T04:11:23.122Z,552.83
2022-10-14T04:13:58.179Z,264.40
2022-10-14T04:16:27.718Z,602.65
2022-10-14T04:19:01.262Z,709.55
2022-10-14T04:21:30.677Z,708.42
2022-10-14T04:23:59.411Z,539.47
2022-10-14T04:26:39.995Z,548.03
2022-10-14T04:29:14.169Z,428.73
2022-10-14T04:31:52.779Z,365.65
2022-10-14T04:34:21.690Z,536.70
2022-10-14T04:36:51.166Z,489.42
2022-10-14T04:39:30.533Z,604.97
2022-10-14T04:41:59.046Z,403.60
2022-10-14T04:44:27.085Z,585.47
2022-10-14T04:46:56.130Z,401.52
2022-10-14T04:49:26.397Z,501.08
2022-10-14T04:52:05.166Z,600.35
2022-10-14T04:54:41.989Z,409.88
2022-10-14T04:57:10.911Z,442.90
2022-10-14T04:59:40.141Z,475.27
2022-10-14T05:02:34.019Z,369.52
2022-10-14T05:05:03.554Z,448.77
2022-10-14T05:07:38.207Z,461.60
2022-10-14T05:10:41.295Z,428.58
2022-10-14T05:13:15.538Z,413.73
2022-10-14T05:15:55.524Z,468.23
2022-10-14T05:18:23.594Z,321.77
2022-10-14T05:20:59.955Z,296.25
2022-10-14T05:23:41.598Z,225.65
2022-10-14T05:26:10.847Z,351.35
2022-10-14T05:28:40.871Z,343.20
2022-10-14T05:31:10.791Z,375.85
2022-10-14T05:33:46.992Z,407.02
2022-10-14T05:36:15.046Z,459.20
2022-10-14T05:38:44.526Z,265.63
2022-10-14T05:41:12.735Z,380.73
2022-10-14T05:43:41.191Z,334.10
2022-10-14T05:46:09.259Z,425.27
2022-10-14T05:48:40.526Z,396.25
2022-10-14T05:51:08.567Z,226.02
2022-10-14T05:53:39.893Z,284.38
2022-10-14T05:56:14.895Z,155.68
2022-10-14T05:58:43.057Z,107.88
2022-10-14T06:01:12.127Z,139.68
2022-10-14T06:03:42.414Z,139.93
2022-10-14T06:06:14.007Z,119.55
2022-10-14T06:08:42.550Z,112.60
2022-10-14T06:11:10.813Z,118.90
2022-10-14T06:13:41.322Z,151.30
2022-10-14T06:16:11.303Z,77.70
2022-10-14T06:18:39.785Z,116.18
2022-10-14T06:21:08.385Z,97.50
2022-10-14T06:23:36.664Z,130.82
2022-10-14T06:26:06.062Z,138.45
2022-10-14T06:28:34.192Z,104.18
2022-10-14T06:31:04.004Z,99.25
2022-10-14T06:33:32.290Z,135.85
2022-10-14T06:36:02.635Z,181.10
2022-10-14T06:38:30.642Z,134.05
2022-10-14T06:40:58.739Z,129.65
2022-10-14T06:43:26.974Z,106.60
2022-10-14T06:45:57.947Z,106.68
2022-10-14T06:48:27.378Z,108.90
2022-10-14T06:50:55.391Z,96.85
2022-10-14T06:53:23.398Z,94.72
2022-10-14T06:55:57.788Z,85.35
2022-10-14T06:58:25.850Z,91.85
2022-10-14T07:00:53.922Z,110.10
2022-10-14T07:03:22.226Z,83.20
2022-10-14T07:05:51.968Z,114.93
2022-10-14T07:08:20.038Z,83.53
2022-10-14T07:10:48.630Z,78.05
2022-10-14T07:13:16.630Z,82.47
2022-10-14T07:15:44.600Z,112.28
2022-10-14T07:18:12.665Z,94.93
2022-10-14T07:20:40.706Z,81.40
2022-10-14T07:23:10.077Z,74.78
2022-10-14T07:25:38.314Z,95.70
2022-10-14T07:28:06.733Z,62.42
2022-10-14T07:30:35.019Z,66.68
2022-10-14T07:33:03.653Z,83.28
2022-10-14T07:35:31.716Z,71.57
2022-10-14T07:38:00.243Z,58.17
2022-10-14T07:40:30.130Z,71.43
2022-10-14T07:42:58.141Z,69.25
2022-10-14T07:45:26.167Z,80.10
2022-10-14T07:47:54.283Z,75.57
2022-10-14T07:50:22.490Z,79.05
2022-10-14T07:52:50.630Z,72.47
2022-10-14T07:55:18.925Z,67.28
2022-10-14T07:57:48.318Z,72.75
2022-10-14T08:00:16.481Z,56.78
2022-10-14T08:02:44.491Z,59.30
2022-10-14T08:05:36.386Z,72.88
2022-10-14T08:08:00.595Z,71.78
2022-10-14T08:10:28.775Z,61.08
2022-10-14T08:12:58.202Z,60.97
2022-10-14T08:15:28.611Z,59.65
2022-10-14T08:17:56.865Z,62.33
2022-10-14T08:20:25.351Z,58.08
2022-10-14T08:22:53.398Z,85.32
2022-10-14T08:25:21.450Z,58.65
2022-10-14T08:27:51.161Z,55.75
2022-10-14T08:30:20.743Z,54.33
2022-10-14T08:32:48.792Z,60.60
2022-10-14T08:35:17.051Z,57.80
2022-10-14T08:37:45.118Z,60.15
2022-10-14T08:40:17.135Z,63.65
2022-10-14T08:42:55.790Z,57.55
2022-10-14T08:45:31.576Z,50.72
2022-10-14T08:48:01.610Z,51.13
2022-10-14T08:50:34.471Z,50.47
2022-10-14T08:53:07.978Z,52.13
2022-10-14T08:55:40.506Z,53.28
2022-10-14T08:58:17.820Z,51.80
2022-10-14T09:00:52.720Z,54.10
2022-10-14T09:03:23.510Z,51.78
2022-10-14T09:05:58.741Z,49.60
2022-10-14T09:08:33.569Z,49.97
2022-10-14T09:11:01.777Z,50.17
2022-10-14T09:13:34.395Z,47.75
2022-10-14T09:16:07.464Z,47.55
2022-10-14T09:18:39.823Z,45.72
2022-10-14T09:21:34.040Z,46.00
2022-10-14T09:24:14.699Z,44.25
2022-10-14T09:26:44.893Z,43.50
2022-10-14T09:29:25.957Z,42.95
2022-10-14T09:31:59.075Z,44.50
2022-10-14T09:34:32.381Z,36.97
2022-10-14T09:37:09.370Z,39.33
2022-10-14T09:39:40.892Z,40.90
2022-10-14T09:42:20.144Z,41.70
2022-10-14T09:47:50.962Z,42.92
2022-10-14T09:50:27.954Z,41.45
2022-10-14T09:53:01.530Z,43.92
2022-10-14T09:55:30.065Z,42.45
2022-10-14T09:58:05.275Z,41.33
2022-10-14T10:00:35.919Z,41.58
2022-10-14T10:03:06.071Z,38.80
2022-10-14T10:05:36.291Z,37.97
2022-10-14T10:08:16.790Z,36.65
2022-10-14T10:11:03.535Z,34.67
2022-10-14T10:13:39.544Z,33.38
2022-10-14T10:16:18.249Z,34.72
2022-10-14T10:18:47.921Z,33.35
2022-10-14T10:21:20.066Z,33.80
2022-10-14T10:23:53.928Z,32.63
2022-10-14T10:26:26.013Z,31.95
2022-10-14T10:28:57.500Z,31.85
2022-10-14T10:31:53.125Z,33.85
2022-10-14T10:34:53.680Z,29.42
2022-10-14T10:37:32.346Z,29.27
2022-10-14T10:40:29.961Z,29.02
2022-10-14T10:43:13.370Z,30.48
2022-10-14T10:45:53.766Z,31.73
2022-10-14T10:48:29.143Z,31.20
2022-10-14T10:51:01.555Z,32.22
2022-10-14T10:53:51.003Z,31.80
2022-10-14T10:56:31.404Z,34.40
2022-10-14T10:59:35.977Z,39.22
2022-10-14T11:02:38.889Z,31.95
2022-10-14T11:05:13.392Z,34.35
2022-10-14T11:08:11.229Z,34.50
2022-10-14T11:11:07.277Z,38.80
2022-10-14T11:13:46.650Z,34.80
2022-10-14T11:16:23.265Z,34.00
2022-10-14T11:18:56.504Z,38.75
2022-10-14T11:21:34.670Z,40.03
2022-10-14T11:24:11.384Z,40.28
2022-10-14T11:26:56.445Z,38.80
2022-10-14T11:29:41.099Z,39.90
2022-10-14T11:32:16.599Z,39.20
2022-10-14T11:34:53.985Z,42.47
2022-10-14T11:37:35.234Z,46.67
2022-10-14T11:40:10.894Z,42.78
2022-10-14T11:42:53.112Z,45.35
2022-10-14T11:45:48.202Z,48.85
2022-10-14T11:48:27.007Z,48.85
2022-10-14T11:50:59.738Z,48.33
2022-10-14T11:53:40.086Z,43.33
2022-10-14T11:56:15.956Z,49.70
2022-10-14T11:58:48.027Z,54.58
2022-10-14T12:01:22.263Z,49.70
2022-10-14T12:03:58.698Z,52.35
2022-10-14T12:06:32.031Z,57.70
2022-10-14T12:09:05.252Z,58.53
2022-10-14T12:11:36.842Z,53.72
2022-10-14T12:14:15.284Z,53.55
2022-10-14T12:16:45.747Z,50.63
2022-10-14T12:19:25.782Z,55.42
2022-10-14T12:21:59.305Z,52.80
2022-10-14T12:24:32.203Z,57.03
2022-10-14T12:27:04.733Z,54.80
2022-10-14T12:29:38.550Z,56.05
2022-10-14T12:32:20.889Z,58.50
2022-10-14T12:34:50.677Z,62.20
2022-10-14T12:37:52.915Z,52.40
2022-10-14T12:40:31.690Z,57.83
2022-10-14T12:43:30.377Z,60.17
2022-10-14T12:46:10.362Z,55.78
2022-10-14T12:48:46.962Z,57.47
2022-10-14T12:51:18.897Z,56.97
2022-10-14T12:54:04.932Z,60.50
2022-10-14T12:56:37.430Z,56.60
2022-10-14T12:59:08.688Z,62.72
2022-10-14T13:01:44.682Z,61.53
2022-10-14T13:04:20.034Z,64.00
2022-10-14T13:07:39.278Z,58.42
2022-10-14T13:10:47.289Z,61.97
2022-10-14T13:14:04.299Z,68.57
2022-10-14T13:17:04.015Z,66.97
2022-10-14T13:19:56.005Z,82.68
2022-10-14T13:22:40.199Z,84.88
2022-10-14T13:25:28.126Z,123.88
2022-10-14T13:28:15.267Z,82.32
2022-10-14T13:30:56.367Z,179.55
2022-10-14T13:33:32.747Z,121.82
2022-10-14T13:36:11.855Z,96.38
2022-10-14T13:38:42.685Z,93.38
2022-10-14T13:41:18.585Z,80.53
2022-10-14T13:43:46.708Z,95.72
2022-10-14T13:46:20.392Z,88.63
2022-10-14T13:48:51.723Z,103.15
2022-10-14T13:51:37.698Z,94.60
2022-10-14T13:54:18.892Z,95.32
2022-10-14T13:57:28.974Z,116.97
2022-10-14T14:00:28.148Z,98.72
2022-10-14T14:02:41.137Z,98.10
2022-10-14T14:05:17.118Z,98.07
2022-10-14T14:10:39.172Z,96.15
2022-10-14T14:13:14.434Z,110.82
2022-10-14T14:15:43.545Z,89.30
2022-10-14T14:18:38.181Z,100.97
2022-10-14T14:21:22.231Z,95.07
2022-10-14T14:23:52.048Z,103.10
2022-10-14T14:26:20.915Z,107.40
2022-10-14T14:28:50.129Z,88.43
2022-10-14T14:31:23.077Z,99.18
2022-10-14T14:33:51.225Z,98.13
2022-10-14T14:36:27.691Z,99.70
2022-10-14T14:39:08.198Z,86.53
2022-10-14T14:41:36.366Z,91.90
2022-10-14T14:44:24.523Z,91.03
2022-10-14T14:46:57.861Z,85.40
2022-10-14T14:49:29.983Z,83.50
2022-10-14T14:52:01.954Z,83.80
2022-10-14T14:54:30.426Z,89.20
2022-10-14T14:57:04.033Z,76.97
2022-10-14T14:59:35.517Z,86.05
2022-10-14T15:02:06.079Z,80.70
2022-10-14T15:04:36.269Z,87.05
2022-10-14T15:07:11.353Z,76.65
2022-10-14T15:09:44.410Z,76.97
2022-10-14T15:12:17.927Z,77.20
2022-10-14T15:14:48.355Z,80.80
2022-10-14T15:17:29.265Z,69.50
2022-10-14T15:20:00.128Z,69.20
2022-10-14T15:22:34.905Z,59.78
2022-10-14T15:25:10.296Z,60.92
2022-10-14T15:27:49.242Z,62.58
2022-10-14T15:30:35.695Z,70.20
2022-10-14T15:33:13.531Z,190.38
2022-10-14T15:35:42.475Z,165.63
2022-10-14T15:38:16.475Z,73.85
2022-10-14T15:40:45.390Z,102.38
2022-10-14T15:43:17.512Z,69.93
2022-10-14T15:46:12.686Z,58.97
2022-10-14T15:48:41.153Z,60.58
2022-10-14T15:51:14.026Z,71.00
2022-10-14T15:53:43.513Z,50.80
2022-10-14T15:56:11.686Z,81.35
2022-10-14T15:58:40.092Z,76.53
2022-10-14T16:01:08.814Z,53.58
2022-10-14T16:03:41.091Z,53.15
2022-10-14T16:06:11.369Z,47.63
2022-10-14T16:08:42.210Z,45.80
2022-10-14T16:11:22.947Z,50.05
2022-10-14T16:13:51.014Z,48.42
2022-10-14T16:16:23.307Z,52.63
2022-10-14T16:18:51.749Z,56.13
2022-10-14T16:21:19.861Z,47.67
2022-10-14T16:23:47.900Z,52.22
2022-10-14T16:26:15.959Z,51.33
2022-10-14T16:28:45.463Z,49.28
2022-10-14T16:31:16.220Z,45.75
2022-10-14T16:33:45.785Z,50.75
2022-10-14T16:36:15.993Z,46.95
2022-10-14T16:38:44.203Z,45.35
2022-10-14T16:41:12.540Z,45.22
2022-10-14T16:43:45.371Z,45.38
2022-10-14T16:46:15.725Z,46.60
2022-10-14T16:48:44.606Z,45.38
2022-10-14T16:51:12.625Z,44.60
2022-10-14T16:53:45.046Z,52.42
2022-10-14T16:56:33.618Z,50.63
2022-10-14T16:59:03.840Z,46.55
2022-10-14T17:01:32.284Z,43.90
2022-10-14T17:04:00.330Z,49.22
2022-10-14T17:06:28.533Z,47.10
2022-10-14T17:08:56.545Z,91.65
2022-10-14T17:11:27.420Z,88.97
2022-10-14T17:13:58.638Z,60.95
2022-10-14T17:16:28.523Z,50.17
2022-10-14T17:18:58.378Z,48.63
2022-10-14T17:21:28.111Z,46.97
2022-10-14T17:23:57.467Z,46.05
2022-10-14T17:26:25.581Z,44.53
2022-10-14T17:28:53.700Z,49.17
2022-10-14T17:31:22.753Z,55.03
2022-10-14T17:33:52.757Z,42.70
2022-10-14T17:36:24.094Z,49.20
2022-10-14T17:38:52.669Z,49.75
2022-10-14T17:41:20.727Z,43.28
2022-10-14T17:43:50.069Z,42.03
2022-10-14T17:46:21.293Z,44.42
2022-10-14T17:48:52.962Z,44.40
2022-10-14T17:51:23.688Z,46.55
2022-10-14T17:53:54.598Z,51.05
2022-10-14T17:56:22.745Z,52.42
2022-10-14T17:58:53.402Z,48.72
2022-10-14T18:01:36.667Z,45.30
2022-10-14T18:04:11.818Z,59.38
2022-10-14T18:06:41.228Z,42.92
2022-10-14T18:09:13.578Z,43.10
2022-10-14T18:14:31.605Z,42.30
2022-10-14T18:17:00.046Z,52.25
2022-10-14T18:19:29.798Z,43.67
2022-10-14T18:21:59.505Z,47.45
2022-10-14T18:24:27.756Z,44.58
2022-10-14T18:26:56.465Z,47.25
2022-10-14T18:29:27.021Z,43.60
2022-10-14T18:31:55.454Z,46.63
2022-10-14T18:34:25.513Z,48.28
2022-10-14T18:36:55.364Z,47.42
2022-10-14T18:39:24.091Z,46.72
2022-10-14T18:41:52.223Z,43.88
2022-10-14T18:44:20.579Z,40.72
2022-10-14T18:46:48.858Z,34.20
2022-10-14T18:49:17.009Z,39.42
2022-10-14T18:51:45.702Z,43.70
2022-10-14T18:54:20.498Z,41.17
2022-10-14T18:56:49.167Z,50.92
2022-10-14T18:59:19.458Z,42.53
2022-10-14T19:01:53.446Z,45.78
2022-10-14T19:04:23.659Z,42.80
2022-10-14T19:06:54.245Z,39.65
2022-10-14T19:09:29.056Z,39.30
2022-10-14T19:11:59.163Z,51.35
2022-10-14T19:14:28.773Z,44.53
2022-10-14T19:16:57.878Z,47.92
2022-10-14T19:19:28.610Z,51.92
2022-10-14T19:21:59.737Z,47.78
2022-10-14T19:24:32.201Z,47.33
2022-10-14T19:27:00.264Z,40.05
2022-10-14T19:29:28.276Z,37.90
2022-10-14T19:32:01.406Z,36.65
2022-10-14T19:34:29.616Z,40.22
2022-10-14T19:37:00.786Z,42.45
2022-10-14T19:39:30.254Z,37.60
2022-10-14T19:41:58.237Z,36.50
2022-10-14T19:44:26.406Z,39.30
2022-10-14T19:46:54.562Z,41.13
2022-10-14T19:49:22.551Z,38.17
2022-10-14T19:51:51.590Z,37.97
2022-10-14T19:54:21.102Z,42.03
2022-10-14T19:56:50.747Z,42.13
2022-10-14T19:59:21.598Z,44.38
2022-10-14T20:01:50.001Z,43.33
2022-10-14T20:04:25.137Z,42.90
2022-10-14T20:06:55.484Z,45.92
2022-10-14T20:09:24.670Z,44.75
2022-10-14T20:11:57.042Z,48.15
2022-10-14T20:14:26.630Z,51.35
2022-10-14T20:16:57.823Z,44.70
2022-10-14T20:19:25.896Z,48.92
2022-10-14T20:21:53.880Z,45.40
2022-10-14T20:24:21.958Z,44.38
2022-10-14T20:26:53.624Z,43.92
2022-10-14T20:29:23.178Z,41.28
2022-10-14T20:31:51.214Z,39.83
2022-10-14T20:34:19.438Z,43.10
2022-10-14T20:36:47.389Z,42.63
2022-10-14T20:39:15.655Z,41.25
2022-10-14T20:41:43.676Z,40.33
2022-10-14T20:44:11.643Z,39.63
2022-10-14T20:46:41.058Z,44.80
2022-10-14T20:49:09.319Z,44.03
2022-10-14T20:51:37.482Z,41.08
2022-10-14T20:54:08.370Z,43.92
2022-10-14T20:56:38.281Z,41.58
2022-10-14T20:59:08.679Z,42.78
2022-10-14T21:01:37.677Z,42.65
2022-10-14T21:04:09.211Z,41.67
2022-10-14T21:06:39.359Z,46.25
2022-10-14T21:09:07.441Z,42.40
2022-10-14T21:11:35.502Z,42.72
2022-10-14T21:14:03.787Z,47.83
2022-10-14T21:16:33.420Z,48.63
2022-10-14T21:19:03.995Z,43.00
2022-10-14T21:21:36.950Z,46.22
2022-10-14T21:24:05.974Z,48.42
2022-10-14T21:26:34.076Z,54.03
2022-10-14T21:29:02.564Z,46.33
2022-10-14T21:31:31.303Z,51.67
2022-10-14T21:34:05.483Z,49.53
2022-10-14T21:36:35.851Z,51.28
2022-10-14T21:39:07.930Z,54.78
2022-10-14T21:41:36.163Z,55.70
2022-10-14T21:44:04.639Z,54.78
2022-10-14T21:46:32.989Z,51.53
2022-10-14T21:49:01.185Z,52.42
2022-10-14T21:51:31.136Z,56.00
2022-10-14T21:54:00.654Z,52.25
2022-10-14T21:56:30.101Z,52.38
2022-10-14T21:58:58.145Z,53.63
2022-10-14T22:01:28.149Z,52.60
2022-10-14T22:03:57.760Z,52.03
2022-10-14T22:06:26.849Z,53.90
2022-10-14T22:08:56.857Z,59.38
2022-10-14T22:11:27.984Z,51.40
2022-10-14T22:13:57.251Z,62.25
2022-10-14T22:16:25.950Z,57.13
2022-10-14T22:18:54.658Z,54.10
2022-10-14T22:21:24.730Z,52.47
2022-10-14T22:23:53.322Z,51.30
2022-10-14T22:26:23.646Z,56.90
2022-10-14T22:28:59.131Z,54.17
2022-10-14T22:31:27.609Z,47.72
2022-10-14T22:33:55.698Z,46.38
2022-10-14T22:36:25.570Z,50.88
2022-10-14T22:38:54.637Z,53.45
2022-10-14T22:41:23.814Z,62.10
2022-10-14T22:43:54.665Z,56.15
2022-10-14T22:46:26.152Z,46.95
2022-10-14T22:48:56.318Z,48.38
2022-10-14T22:53:55.633Z,47.25
2022-10-14T22:56:26.160Z,49.25
2022-10-14T22:58:56.145Z,50.20
2022-10-14T23:01:27.767Z,45.17
2022-10-14T23:03:56.869Z,60.03
2022-10-14T23:06:25.210Z,52.80
2022-10-14T23:08:54.359Z,49.92
2022-10-14T23:11:24.090Z,53.90
2022-10-14T23:13:52.484Z,55.42
2022-10-14T23:16:23.673Z,54.13
2022-10-14T23:18:52.793Z,57.58
2022-10-14T23:21:22.521Z,54.30
2022-10-14T23:23:52.274Z,49.90
2022-10-14T23:26:22.355Z,52.90
2022-10-14T23:28:52.390Z,56.85
2022-10-14T23:31:23.033Z,57.28
2022-10-14T23:33:52.315Z,61.97
2022-10-14T23:36:21.165Z,63.78
2022-10-14T23:38:49.789Z,66.43
2022-10-14T23:41:17.807Z,59.70
2022-10-14T23:43:45.946Z,60.42
2022-10-14T23:46:13.924Z,67.82
2022-10-14T23:48:43.433Z,60.35
2022-10-14T23:51:13.366Z,68.22
2022-10-14T23:53:41.407Z,61.25
2022-10-14T23:56:09.455Z,68.85
2022-10-14T23:58:37.438Z,70.13
